createdAt,value
2023-03-29T00:00:14.542Z,93.79
2023-03-29T00:02:48.586Z,94.49
2023-03-29T00:05:18.956Z,95.02
2023-03-29T00:07:46.641Z,95.94
2023-03-29T00:10:14.006Z,96.94
2023-03-29T00:12:42.031Z,97.50
2023-03-29T00:15:10.066Z,98.23
2023-03-29T00:17:37.823Z,98.69
2023-03-29T00:20:12.516Z,99.44
2023-03-29T00:22:44.678Z,100.00
2023-03-29T00:25:13.479Z,100.00
2023-03-29T00:27:41.305Z,100.00
2023-03-29T00:30:10.330Z,100.00
2023-03-29T00:32:38.778Z,100.00
2023-03-29T00:35:06.465Z,99.82
2023-03-29T00:37:34.093Z,99.61
2023-03-29T00:40:01.729Z,99.31
2023-03-29T00:42:30.363Z,100.00
2023-03-29T00:45:00.645Z,99.65
2023-03-29T00:47:47.197Z,99.69
2023-03-29T00:50:29.779Z,100.00
2023-03-29T00:53:27.537Z,100.00
2023-03-29T00:56:06.473Z,100.00
2023-03-29T00:58:49.697Z,100.00
2023-03-29T01:01:46.139Z,99.53
2023-03-29T01:04:47.637Z,98.96
2023-03-29T01:07:42.210Z,99.40
2023-03-29T01:10:16.266Z,98.79
2023-03-29T01:12:54.446Z,98.32
2023-03-29T01:15:26.547Z,98.52
2023-03-29T01:17:55.803Z,98.53
2023-03-29T01:20:43.455Z,98.88
2023-03-29T01:23:38.519Z,98.68
2023-03-29T01:26:21.903Z,99.45
2023-03-29T01:29:08.759Z,99.42
2023-03-29T01:31:44.946Z,99.90
2023-03-29T01:34:32.046Z,100.00
2023-03-29T01:37:24.699Z,100.00
2023-03-29T01:39:53.043Z,100.00
2023-03-29T01:42:28.454Z,100.00
2023-03-29T01:45:17.198Z,100.00
2023-03-29T01:48:27.045Z,100.00
2023-03-29T01:51:23.092Z,100.00
2023-03-29T01:54:13.359Z,100.00
2023-03-29T01:56:44.143Z,100.00
2023-03-29T01:59:16.159Z,100.00
2023-03-29T02:01:49.902Z,100.00
2023-03-29T02:04:31.754Z,100.00
2023-03-29T02:07:02.283Z,100.00
2023-03-29T02:09:30.764Z,100.00
2023-03-29T02:12:01.046Z,100.00
2023-03-29T02:14:30.432Z,100.00
2023-03-29T02:17:09.223Z,100.00
2023-03-29T02:19:36.701Z,100.00
2023-03-29T02:22:10.370Z,100.00
2023-03-29T02:24:39.368Z,100.00
2023-03-29T02:27:06.750Z,100.00
2023-03-29T02:29:34.115Z,100.00
2023-03-29T02:32:15.942Z,100.00
2023-03-29T02:34:53.396Z,100.00
2023-03-29T02:37:24.404Z,100.00
2023-03-29T02:39:52.542Z,100.00
2023-03-29T02:42:20.623Z,100.00
2023-03-29T02:44:53.066Z,100.00
2023-03-29T02:47:35.723Z,100.00
2023-03-29T02:50:03.330Z,100.00
2023-03-29T02:52:39.337Z,100.00
2023-03-29T02:55:15.029Z,100.00
2023-03-29T02:57:43.985Z,100.00
2023-03-29T03:00:14.654Z,100.00
2023-03-29T03:02:42.920Z,100.00
2023-03-29T03:05:10.458Z,100.00
2023-03-29T03:07:40.590Z,100.00
2023-03-29T03:10:10.333Z,100.00
2023-03-29T03:12:37.942Z,100.00
2023-03-29T03:15:06.609Z,100.00
2023-03-29T03:17:34.013Z,100.00
2023-03-29T03:20:01.388Z,100.00
2023-03-29T03:22:28.695Z,100.00
2023-03-29T03:24:56.122Z,100.00
2023-03-29T03:27:23.449Z,100.00
2023-03-29T03:29:50.761Z,100.00
2023-03-29T03:32:18.561Z,100.00
2023-03-29T03:34:45.898Z,100.00
2023-03-29T03:37:13.260Z,100.00
2023-03-29T03:39:40.662Z,100.00
2023-03-29T03:42:08.537Z,100.00
2023-03-29T03:44:36.554Z,100.00
2023-03-29T03:47:05.773Z,100.00
2023-03-29T03:49:33.164Z,100.00
2023-03-29T03:52:00.459Z,100.00
2023-03-29T03:54:28.078Z,100.00
2023-03-29T03:56:55.487Z,100.00
2023-03-29T03:59:22.941Z,100.00
2023-03-29T04:01:50.590Z,100.00
2023-03-29T04:04:21.716Z,100.00
2023-03-29T04:06:50.589Z,100.00
2023-03-29T04:09:18.177Z,100.00
2023-03-29T04:11:45.564Z,100.00
2023-03-29T04:14:12.908Z,100.00
2023-03-29T04:16:40.336Z,100.00
2023-03-29T04:19:07.654Z,100.00
2023-03-29T04:21:35.086Z,100.00
2023-03-29T04:24:02.396Z,100.00
2023-03-29T04:26:29.804Z,100.00
2023-03-29T04:29:29.486Z,100.00
2023-03-29T04:31:56.852Z,100.00
2023-03-29T04:34:24.262Z,100.00
2023-03-29T04:36:51.770Z,100.00
2023-03-29T04:39:19.327Z,100.00
2023-03-29T04:41:55.957Z,100.00
2023-03-29T04:44:23.276Z,100.00
2023-03-29T04:46:50.767Z,100.00
2023-03-29T04:49:18.282Z,100.00
2023-03-29T04:51:45.858Z,100.00
2023-03-29T04:54:13.328Z,100.00
2023-03-29T04:56:40.785Z,100.00
2023-03-29T04:59:10.583Z,100.00
2023-03-29T05:01:38.815Z,100.00
2023-03-29T05:04:14.081Z,100.00
2023-03-29T05:06:42.051Z,100.00
2023-03-29T05:09:12.909Z,100.00
2023-03-29T05:11:40.370Z,100.00
2023-03-29T05:14:09.370Z,100.00
2023-03-29T05:16:52.545Z,100.00
2023-03-29T05:19:21.899Z,100.00
2023-03-29T05:21:50.999Z,100.00
2023-03-29T05:24:18.478Z,100.00
2023-03-29T05:26:47.696Z,100.00
2023-03-29T05:29:15.394Z,100.00
2023-03-29T05:31:43.086Z,100.00
2023-03-29T05:34:10.904Z,100.00
2023-03-29T05:36:39.176Z,100.00
2023-03-29T05:39:06.943Z,100.00
2023-03-29T05:41:34.672Z,100.00
2023-03-29T05:44:02.616Z,100.00
2023-03-29T05:46:30.176Z,100.00
2023-03-29T05:48:57.706Z,100.00
2023-03-29T05:51:25.340Z,100.00
2023-03-29T05:53:52.774Z,100.00
2023-03-29T05:56:20.713Z,100.00
2023-03-29T05:58:49.393Z,100.00
2023-03-29T06:01:20.045Z,100.00
2023-03-29T06:03:47.704Z,100.00
2023-03-29T06:06:16.746Z,100.00
2023-03-29T06:08:45.032Z,100.00
2023-03-29T06:11:13.532Z,100.00
2023-03-29T06:13:42.291Z,100.00
2023-03-29T06:16:11.590Z,100.00
2023-03-29T06:18:40.358Z,100.00
2023-03-29T06:21:09.398Z,100.00
2023-03-29T06:23:37.195Z,100.00
2023-03-29T06:26:05.933Z,100.00
2023-03-29T06:28:33.390Z,100.00
2023-03-29T06:31:03.282Z,100.00
2023-03-29T06:33:32.387Z,100.00
2023-03-29T06:38:41.699Z,100.00
2023-03-29T06:41:11.361Z,100.00
2023-03-29T06:43:38.948Z,100.00
2023-03-29T06:46:12.044Z,100.00
2023-03-29T06:48:41.021Z,100.00
2023-03-29T06:51:08.720Z,100.00
2023-03-29T06:53:36.727Z,100.00
2023-03-29T06:56:09.353Z,100.00
2023-03-29T06:58:37.227Z,100.00
2023-03-29T07:01:05.192Z,100.00
2023-03-29T07:03:35.055Z,100.00
2023-03-29T07:06:09.761Z,100.00
2023-03-29T07:08:43.519Z,100.00
2023-03-29T07:11:15.142Z,100.00
2023-03-29T07:13:43.768Z,100.00
2023-03-29T07:16:14.212Z,100.00
2023-03-29T07:18:44.764Z,100.00
2023-03-29T07:21:13.440Z,100.00
2023-03-29T07:23:41.096Z,100.00
2023-03-29T07:26:08.788Z,100.00
2023-03-29T07:28:37.634Z,100.00
2023-03-29T07:31:11.202Z,100.00
2023-03-29T07:33:39.357Z,100.00
2023-03-29T07:36:07.203Z,100.00
2023-03-29T07:38:34.913Z,100.00
2023-03-29T07:41:06.024Z,100.00
2023-03-29T07:43:34.240Z,100.00
2023-03-29T07:46:04.878Z,100.00
2023-03-29T07:48:32.976Z,100.00
2023-03-29T07:51:01.229Z,100.00
2023-03-29T07:53:29.832Z,100.00
2023-03-29T07:55:58.115Z,100.00
2023-03-29T07:58:25.474Z,100.00
2023-03-29T08:00:53.195Z,100.00
2023-03-29T08:03:20.886Z,99.69
2023-03-29T08:05:48.629Z,99.14
2023-03-29T08:08:16.126Z,97.59
2023-03-29T08:10:45.238Z,96.24
2023-03-29T08:13:12.712Z,96.27
2023-03-29T08:15:42.317Z,95.32
2023-03-29T08:18:09.724Z,95.08
2023-03-29T08:20:37.313Z,95.41
2023-03-29T08:23:04.792Z,96.01
2023-03-29T08:25:31.984Z,95.07
2023-03-29T08:27:59.368Z,94.77
2023-03-29T08:30:27.119Z,95.12
2023-03-29T08:32:55.411Z,94.35
2023-03-29T08:35:23.189Z,93.96
2023-03-29T08:37:50.268Z,93.19
2023-03-29T08:40:22.926Z,92.16
2023-03-29T08:42:50.375Z,92.49
2023-03-29T08:45:40.805Z,91.32
2023-03-29T08:48:35.109Z,89.97
2023-03-29T08:51:16.801Z,90.08
2023-03-29T08:54:12.649Z,88.62
2023-03-29T08:56:43.383Z,88.22
2023-03-29T08:59:26.613Z,87.37
2023-03-29T09:01:58.046Z,85.46
2023-03-29T09:04:32.002Z,86.43
2023-03-29T09:06:59.656Z,85.43
2023-03-29T09:09:33.188Z,85.21
2023-03-29T09:12:27.184Z,85.63
2023-03-29T09:15:09.646Z,84.38
2023-03-29T09:17:53.318Z,82.44
2023-03-29T09:20:42.310Z,82.45
2023-03-29T09:23:36.046Z,81.54
2023-03-29T09:26:28.515Z,81.71
2023-03-29T09:29:30.316Z,81.26
2023-03-29T09:31:57.790Z,81.27
2023-03-29T09:34:40.043Z,82.40
2023-03-29T09:37:21.889Z,80.04
2023-03-29T09:39:53.293Z,79.72
2023-03-29T09:42:21.033Z,78.16
2023-03-29T09:44:53.691Z,77.00
2023-03-29T09:47:40.764Z,75.48
2023-03-29T09:50:39.713Z,77.94
2023-03-29T09:53:08.803Z,76.91
2023-03-29T09:55:37.475Z,76.23
2023-03-29T09:58:27.589Z,74.82
2023-03-29T10:00:59.664Z,72.70
2023-03-29T10:03:31.084Z,72.22
2023-03-29T10:06:01.698Z,72.45
2023-03-29T10:08:39.293Z,72.39
2023-03-29T10:11:30.396Z,72.76
2023-03-29T10:14:17.015Z,72.21
2023-03-29T10:16:46.215Z,72.78
2023-03-29T10:19:36.776Z,73.26
2023-03-29T10:22:16.335Z,72.29
2023-03-29T10:24:50.183Z,72.44
2023-03-29T10:27:23.480Z,71.61
2023-03-29T10:29:51.782Z,70.84
2023-03-29T10:32:34.238Z,71.26
2023-03-29T10:35:17.264Z,70.06
2023-03-29T10:37:49.613Z,69.26
2023-03-29T10:40:44.080Z,69.45
2023-03-29T10:43:18.191Z,70.12
2023-03-29T10:45:50.330Z,69.19
2023-03-29T10:48:19.372Z,70.05
2023-03-29T10:50:53.302Z,69.75
2023-03-29T10:53:29.472Z,70.28
2023-03-29T10:56:32.098Z,69.89
2023-03-29T10:59:29.636Z,68.85
2023-03-29T11:02:15.236Z,67.50
2023-03-29T11:05:24.654Z,68.19
2023-03-29T11:08:17.778Z,66.29
2023-03-29T11:11:12.577Z,67.10
2023-03-29T11:14:23.262Z,67.56
2023-03-29T11:17:24.150Z,66.19
2023-03-29T11:20:05.818Z,66.22
2023-03-29T11:22:48.515Z,66.10
2023-03-29T11:25:33.497Z,65.48
2023-03-29T11:28:19.064Z,64.97
2023-03-29T11:30:56.254Z,64.19
2023-03-29T11:33:34.835Z,64.50
2023-03-29T11:36:17.717Z,64.66
2023-03-29T11:39:15.331Z,62.51
2023-03-29T11:41:47.491Z,63.07
2023-03-29T11:44:23.496Z,62.42
2023-03-29T11:47:04.875Z,62.60
2023-03-29T11:49:54.608Z,63.39
2023-03-29T11:52:50.791Z,63.50
2023-03-29T11:55:28.060Z,63.07
2023-03-29T11:58:02.622Z,62.76
2023-03-29T12:00:39.867Z,62.75
2023-03-29T12:03:46.895Z,62.15
2023-03-29T12:06:50.765Z,61.29
2023-03-29T12:09:37.720Z,60.47
2023-03-29T12:12:35.214Z,62.56
2023-03-29T12:15:07.193Z,59.93
2023-03-29T12:17:47.470Z,59.23
2023-03-29T12:20:23.452Z,59.46
2023-03-29T12:22:51.810Z,59.82
2023-03-29T12:25:32.039Z,59.59
2023-03-29T12:28:23.452Z,60.68
2023-03-29T12:31:25.115Z,59.67
2023-03-29T12:34:35.086Z,58.09
2023-03-29T12:37:20.859Z,58.75
2023-03-29T12:39:50.319Z,60.16
2023-03-29T12:42:21.295Z,61.13
2023-03-29T12:44:59.057Z,60.57
2023-03-29T12:47:33.796Z,60.55
2023-03-29T12:50:01.811Z,61.29
2023-03-29T12:52:36.417Z,61.87
2023-03-29T12:55:30.767Z,61.08
2023-03-29T12:58:05.978Z,61.72
2023-03-29T13:00:45.579Z,62.06
2023-03-29T13:03:27.224Z,61.64
2023-03-29T13:06:05.283Z,61.98
2023-03-29T13:08:44.461Z,62.02
2023-03-29T13:11:54.941Z,62.36
2023-03-29T13:14:29.983Z,62.22
2023-03-29T13:17:18.473Z,61.59
2023-03-29T13:20:10.890Z,61.72
2023-03-29T13:23:36.895Z,61.52
2023-03-29T13:26:52.794Z,62.01
2023-03-29T13:29:42.756Z,62.92
2023-03-29T13:32:46.533Z,62.75
2023-03-29T13:35:41.777Z,62.83
2023-03-29T13:38:23.174Z,62.93
2023-03-29T13:40:53.116Z,62.59
2023-03-29T13:43:22.238Z,62.72
2023-03-29T13:45:57.948Z,61.32
2023-03-29T13:48:49.051Z,60.96
2023-03-29T13:51:19.051Z,62.29
2023-03-29T13:54:16.151Z,61.62
2023-03-29T13:57:09.320Z,61.28
2023-03-29T14:00:16.192Z,62.62
2023-03-29T14:02:57.434Z,63.87
2023-03-29T14:05:49.484Z,65.20
2023-03-29T14:08:27.013Z,65.30
2023-03-29T14:10:55.355Z,65.16
2023-03-29T14:13:25.181Z,65.86
2023-03-29T14:15:58.755Z,66.21
2023-03-29T14:18:29.447Z,66.21
2023-03-29T14:20:56.788Z,67.14
2023-03-29T14:23:31.891Z,66.57
2023-03-29T14:26:19.775Z,67.73
2023-03-29T14:28:53.018Z,67.89
2023-03-29T14:31:31.021Z,67.79
2023-03-29T14:34:01.016Z,68.70
2023-03-29T14:36:30.117Z,68.82
2023-03-29T14:39:15.553Z,69.23
2023-03-29T14:41:52.031Z,69.66
2023-03-29T14:44:21.891Z,69.99
2023-03-29T14:46:49.313Z,70.47
2023-03-29T14:49:19.814Z,71.61
2023-03-29T14:51:48.186Z,71.98
2023-03-29T14:54:27.024Z,71.54
2023-03-29T14:56:54.824Z,71.92
2023-03-29T14:59:42.860Z,70.93
2023-03-29T15:02:33.591Z,69.57
2023-03-29T15:05:05.589Z,69.64
2023-03-29T15:07:37.203Z,69.55
2023-03-29T15:10:06.633Z,68.62
2023-03-29T15:12:34.472Z,68.41
2023-03-29T15:15:02.590Z,68.56
2023-03-29T15:17:50.401Z,69.01
2023-03-29T15:20:34.056Z,68.65
2023-03-29T15:23:19.603Z,68.86
2023-03-29T15:25:51.478Z,68.19
2023-03-29T15:28:33.894Z,68.04
2023-03-29T15:31:12.344Z,68.88
2023-03-29T15:33:41.861Z,68.85
2023-03-29T15:36:12.373Z,69.04
2023-03-29T15:38:44.485Z,68.33
2023-03-29T15:41:14.737Z,67.62
2023-03-29T15:43:42.842Z,67.38
2023-03-29T15:46:14.059Z,67.83
2023-03-29T15:48:42.161Z,67.80
2023-03-29T15:51:13.149Z,67.76
2023-03-29T15:53:42.159Z,66.86
2023-03-29T15:56:12.370Z,67.75
2023-03-29T15:58:39.853Z,67.76
2023-03-29T16:01:33.678Z,67.74
2023-03-29T16:04:19.818Z,67.95
2023-03-29T16:06:50.602Z,67.40
2023-03-29T16:09:18.178Z,67.93
2023-03-29T16:11:46.286Z,67.99
2023-03-29T16:14:24.479Z,67.98
2023-03-29T16:16:52.930Z,68.07
2023-03-29T16:19:20.658Z,68.66
2023-03-29T16:21:48.596Z,69.05
2023-03-29T16:24:28.452Z,69.45
2023-03-29T16:26:57.479Z,68.99
2023-03-29T16:29:25.698Z,69.26
2023-03-29T16:31:53.547Z,69.69
2023-03-29T16:34:22.796Z,69.41
2023-03-29T16:36:50.786Z,69.89
2023-03-29T16:39:18.431Z,70.69
2023-03-29T16:41:48.904Z,70.42
2023-03-29T16:44:21.040Z,70.66
2023-03-29T16:46:49.163Z,70.62
2023-03-29T16:49:19.638Z,71.37
2023-03-29T16:51:48.171Z,71.60
2023-03-29T16:54:17.433Z,71.89
2023-03-29T16:56:44.976Z,72.62
2023-03-29T16:59:12.568Z,72.79
2023-03-29T17:01:40.621Z,73.48
2023-03-29T17:04:08.549Z,72.87
2023-03-29T17:06:36.076Z,73.17
2023-03-29T17:09:05.049Z,73.00
2023-03-29T17:11:32.769Z,73.48
2023-03-29T17:14:00.412Z,73.71
2023-03-29T17:16:29.215Z,73.44
2023-03-29T17:19:00.527Z,74.10
2023-03-29T17:21:29.297Z,74.87
2023-03-29T17:23:56.757Z,75.23
2023-03-29T17:26:24.339Z,75.65
2023-03-29T17:28:51.705Z,75.21
2023-03-29T17:31:19.689Z,75.60
2023-03-29T17:33:47.590Z,75.87
2023-03-29T17:36:15.204Z,76.12
2023-03-29T17:38:43.079Z,76.14
2023-03-29T17:41:11.343Z,76.42
2023-03-29T17:43:39.131Z,76.55
2023-03-29T17:46:06.894Z,76.74
2023-03-29T17:48:34.396Z,77.48
2023-03-29T17:51:02.233Z,77.74
2023-03-29T17:53:33.239Z,77.73
2023-03-29T17:56:00.843Z,77.92
2023-03-29T17:58:28.754Z,77.75
2023-03-29T18:00:56.926Z,77.78
2023-03-29T18:03:24.522Z,77.92
2023-03-29T18:05:51.958Z,78.13
2023-03-29T18:08:19.419Z,78.59
2023-03-29T18:10:46.832Z,78.03
2023-03-29T18:13:14.936Z,77.92
2023-03-29T18:15:42.379Z,78.21
2023-03-29T18:18:09.937Z,78.53
2023-03-29T18:20:37.323Z,79.06
2023-03-29T18:23:04.702Z,78.93
2023-03-29T18:25:32.349Z,79.07
2023-03-29T18:28:00.945Z,80.11
2023-03-29T18:30:28.409Z,79.78
2023-03-29T18:32:55.966Z,79.46
2023-03-29T18:35:23.419Z,79.26
2023-03-29T18:37:52.398Z,79.39
2023-03-29T18:40:26.972Z,80.04
2023-03-29T18:42:54.820Z,80.58
2023-03-29T18:45:22.513Z,80.76
2023-03-29T18:47:50.834Z,81.14
2023-03-29T18:50:18.308Z,81.33
2023-03-29T18:52:45.857Z,81.68
2023-03-29T18:55:13.267Z,81.94
2023-03-29T18:57:40.967Z,82.59
2023-03-29T19:00:14.844Z,82.22
2023-03-29T19:02:42.619Z,81.80
2023-03-29T19:07:38.870Z,82.00
2023-03-29T19:10:08.514Z,81.60
2023-03-29T19:12:36.078Z,82.00
2023-03-29T19:15:03.587Z,82.14
2023-03-29T19:17:30.964Z,81.69
2023-03-29T19:19:58.421Z,81.78
2023-03-29T19:22:26.635Z,81.99
2023-03-29T19:24:54.017Z,82.48
2023-03-29T19:27:21.408Z,82.86
2023-03-29T19:29:49.193Z,82.92
2023-03-29T19:32:16.627Z,83.06
2023-03-29T19:34:43.979Z,83.27
2023-03-29T19:37:11.707Z,83.06
2023-03-29T19:39:41.075Z,83.28
2023-03-29T19:42:08.698Z,83.80
2023-03-29T19:44:38.382Z,83.85
2023-03-29T19:47:08.468Z,84.42
2023-03-29T19:49:38.657Z,84.29
2023-03-29T19:52:06.528Z,84.92
2023-03-29T19:54:33.872Z,84.90
2023-03-29T19:57:01.916Z,84.99
2023-03-29T19:59:31.134Z,84.92
2023-03-29T20:01:59.389Z,85.22
2023-03-29T20:04:28.899Z,85.19
2023-03-29T20:06:57.684Z,85.90
2023-03-29T20:09:25.082Z,86.39
2023-03-29T20:11:52.414Z,86.18
2023-03-29T20:14:19.903Z,86.43
2023-03-29T20:16:49.645Z,87.03
2023-03-29T20:19:17.937Z,87.69
2023-03-29T20:21:45.150Z,87.59
2023-03-29T20:24:12.606Z,87.52
2023-03-29T20:26:39.986Z,86.75
2023-03-29T20:29:07.406Z,86.21
2023-03-29T20:31:34.864Z,86.51
2023-03-29T20:34:02.329Z,86.75
2023-03-29T20:36:30.786Z,87.03
2023-03-29T20:38:59.427Z,86.33
2023-03-29T20:41:27.157Z,86.32
2023-03-29T20:44:00.031Z,86.18
2023-03-29T20:46:37.839Z,85.98
2023-03-29T20:49:07.439Z,85.56
2023-03-29T20:51:34.800Z,85.64
2023-03-29T20:54:05.188Z,85.83
2023-03-29T20:56:42.289Z,86.41
2023-03-29T20:59:10.922Z,86.39
2023-03-29T21:01:41.013Z,87.20
2023-03-29T21:04:09.254Z,87.35
2023-03-29T21:06:39.905Z,87.31
2023-03-29T21:09:07.402Z,87.85
2023-03-29T21:11:34.773Z,88.54
2023-03-29T21:14:02.692Z,88.36
2023-03-29T21:16:31.204Z,88.74
2023-03-29T21:18:58.752Z,88.71
2023-03-29T21:21:26.321Z,88.96
2023-03-29T21:23:53.699Z,89.14
2023-03-29T21:26:22.773Z,89.48
2023-03-29T21:28:50.433Z,89.40
2023-03-29T21:31:18.169Z,89.57
2023-03-29T21:33:45.782Z,89.68
2023-03-29T21:36:13.281Z,90.23
2023-03-29T21:38:40.885Z,90.81
2023-03-29T21:41:12.106Z,91.26
2023-03-29T21:43:39.972Z,91.29
2023-03-29T21:46:07.481Z,91.39
2023-03-29T21:48:34.494Z,91.85
2023-03-29T21:51:01.718Z,91.72
2023-03-29T21:53:29.159Z,92.12
2023-03-29T21:55:56.648Z,92.43
2023-03-29T21:58:24.173Z,92.02
2023-03-29T22:00:51.637Z,92.08
2023-03-29T22:03:19.309Z,92.27
2023-03-29T22:06:00.727Z,92.78
2023-03-29T22:08:28.687Z,93.13
2023-03-29T22:10:57.130Z,93.39
2023-03-29T22:13:26.983Z,93.39
2023-03-29T22:16:03.758Z,93.10
2023-03-29T22:18:46.957Z,92.56
2023-03-29T22:21:22.739Z,91.59
2023-03-29T22:23:53.931Z,91.44
2023-03-29T22:26:27.671Z,90.23
2023-03-29T22:28:55.713Z,89.35
2023-03-29T22:31:25.083Z,88.38
2023-03-29T22:33:52.771Z,87.72
2023-03-29T22:36:31.329Z,86.26
2023-03-29T22:38:59.371Z,84.83
2023-03-29T22:41:28.157Z,84.03
2023-03-29T22:43:58.205Z,83.12
2023-03-29T22:46:26.448Z,81.87
2023-03-29T22:48:53.875Z,80.41
2023-03-29T22:51:21.785Z,79.84
2023-03-29T22:53:49.548Z,79.00
2023-03-29T22:56:17.804Z,78.07
2023-03-29T22:58:45.916Z,77.45
2023-03-29T23:01:13.729Z,77.55
2023-03-29T23:03:41.818Z,77.68
2023-03-29T23:06:09.531Z,77.54
2023-03-29T23:08:37.241Z,76.86
2023-03-29T23:11:05.505Z,76.46
2023-03-29T23:13:33.719Z,76.91
2023-03-29T23:16:03.596Z,78.11
2023-03-29T23:18:34.685Z,77.16
2023-03-29T23:21:05.087Z,77.20
2023-03-29T23:23:32.857Z,76.45
2023-03-29T23:26:00.700Z,77.67
2023-03-29T23:28:30.647Z,77.63
2023-03-29T23:31:09.888Z,77.32
2023-03-29T23:33:41.136Z,77.55
2023-03-29T23:36:12.690Z,78.08
2023-03-29T23:38:42.152Z,78.23
2023-03-29T23:41:12.734Z,75.84
2023-03-29T23:43:43.113Z,76.15
2023-03-29T23:46:16.387Z,76.78
2023-03-29T23:48:49.264Z,77.56
2023-03-29T23:51:23.073Z,76.22
2023-03-29T23:53:51.207Z,75.45
2023-03-29T23:56:18.672Z,74.35
2023-03-29T23:58:46.124Z,74.09
